Time;durP1;ratioP1;P1;durP2;ratioP2;P2;SDS_P1;SDS_P2;PMS_P1;PMS_P2;Temp;Humidity;BMP_temperature;BMP_pressure;BME280_temperature;BME280_humidity;BME280_pressure;Samples;Min_cycle;Max_cycle;Signal;HPM_P1;HPM_P2
2020/12/12 00:00:35;;;;;;;92.80;40.33;;;4.00;99.90;;;;;;5091659;28;20274;-46
2020/12/12 00:03:02;;;;;;;94.80;42.67;;;4.00;99.90;;;;;;5076181;28;20200;-46
2020/12/12 00:05:29;;;;;;;81.97;39.80;;;4.20;99.90;;;;;;5075434;28;20230;-47
2020/12/12 00:07:55;;;;;;;80.95;40.60;;;4.20;99.90;;;;;;5076038;28;20211;-45
2020/12/12 00:10:24;;;;;;;94.95;42.58;;;4.30;99.90;;;;;;5078823;28;20206;-45
2020/12/12 00:12:52;;;;;;;95.10;43.30;;;4.00;99.90;;;;;;5088262;28;20269;-46
2020/12/12 00:15:18;;;;;;;95.60;43.15;;;4.10;99.90;;;;;;5075604;28;20191;-47
2020/12/12 00:17:45;;;;;;;90.50;42.58;;;4.30;99.90;;;;;;5075921;28;20648;-45
2020/12/12 00:20:12;;;;;;;94.65;42.58;;;4.30;99.90;;;;;;5075832;28;20227;-45
2020/12/12 00:22:39;;;;;;;91.22;44.92;;;3.90;99.90;;;;;;5074848;28;20191;-47
2020/12/12 00:25:07;;;;;;;94.38;41.38;;;4.30;99.90;;;;;;5094568;28;20209;-45
2020/12/12 00:27:34;;;;;;;100.47;44.70;;;4.00;99.90;;;;;;5095849;28;20222;-45
2020/12/12 00:30:01;;;;;;;92.68;42.25;;;4.30;99.90;;;;;;5096982;28;20222;-45
2020/12/12 00:32:28;;;;;;;101.78;42.83;;;4.00;99.90;;;;;;5095513;28;20195;-45
2020/12/12 00:34:56;;;;;;;93.55;43.53;;;4.20;99.90;;;;;;5094431;28;20218;-46
2020/12/12 00:37:23;;;;;;;88.47;43.08;;;3.90;99.90;;;;;;5094195;28;20281;-46
2020/12/12 00:39:50;;;;;;;101.18;43.60;;;3.90;99.90;;;;;;5094586;28;20667;-45
2020/12/12 00:42:16;;;;;;;92.40;42.13;;;4.10;99.90;;;;;;5090150;28;20227;-45
2020/12/12 00:44:43;;;;;;;97.45;44.40;;;4.20;99.90;;;;;;5076271;28;20214;-47
2020/12/12 00:47:10;;;;;;;94.57;42.53;;;3.90;99.90;;;;;;5094213;28;20230;-46
2020/12/12 00:49:37;;;;;;;95.72;44.97;;;4.10;99.90;;;;;;5076100;28;20199;-46
2020/12/12 00:52:04;;;;;;;89.90;41.28;;;4.20;99.90;;;;;;5094851;28;20197;-46
2020/12/12 00:54:30;;;;;;;100.30;42.00;;;4.20;99.90;;;;;;5075342;28;20213;-46
2020/12/12 00:56:57;;;;;;;103.80;43.10;;;3.90;99.90;;;;;;5076357;28;20198;-44
2020/12/12 00:59:23;;;;;;;100.38;45.15;;;3.80;99.90;;;;;;5090826;28;20214;-47
2020/12/12 01:01:50;;;;;;;94.05;43.88;;;3.80;99.90;;;;;;5079276;28;20667;-45
2020/12/12 01:04:17;;;;;;;90.28;43.20;;;3.70;99.90;;;;;;5073515;28;20211;-46
2020/12/12 01:06:46;;;;;;;102.53;44.85;;;3.60;99.90;;;;;;5073890;28;20709;-46
2020/12/12 01:09:15;;;;;;;93.45;41.53;;;3.90;99.90;;;;;;5075631;28;20620;-45
2020/12/12 01:11:42;;;;;;;96.43;43.75;;;3.60;99.90;;;;;;5080783;28;20617;-47
2020/12/12 01:14:09;;;;;;;93.20;43.25;;;3.40;99.90;;;;;;5080385;28;20202;-45
2020/12/12 01:16:35;;;;;;;89.95;42.00;;;3.60;99.90;;;;;;5090132;28;20218;-45
2020/12/12 01:19:02;;;;;;;99.53;44.38;;;3.10;99.90;;;;;;5092506;28;20264;-46
2020/12/12 01:21:29;;;;;;;114.95;43.08;;;3.80;99.90;;;;;;5092866;28;20186;-46
2020/12/12 01:23:56;;;;;;;92.13;41.63;;;3.40;99.90;;;;;;5092789;28;20186;-46
2020/12/12 01:26:22;;;;;;;89.07;42.30;;;3.60;99.90;;;;;;5092982;28;20245;-46
2020/12/12 01:28:48;;;;;;;87.45;41.45;;;3.40;99.90;;;;;;5093193;28;20242;-46
2020/12/12 01:31:15;;;;;;;97.72;43.60;;;3.30;99.90;;;;;;5093207;28;20201;-45
2020/12/12 01:33:43;;;;;;;98.38;44.72;;;2.90;99.90;;;;;;5092961;28;20846;-45
2020/12/12 01:36:10;;;;;;;88.35;41.13;;;3.40;99.90;;;;;;5090372;28;20252;-45
2020/12/12 01:38:38;;;;;;;100.38;41.30;;;3.30;99.90;;;;;;5074133;28;20717;-45
2020/12/12 01:41:05;;;;;;;99.47;44.65;;;3.30;99.90;;;;;;5093091;28;20226;-45
2020/12/12 01:43:31;;;;;;;91.57;42.97;;;3.30;99.90;;;;;;5092790;28;20252;-45
2020/12/12 01:45:58;;;;;;;106.95;44.42;;;3.40;99.90;;;;;;5092459;28;20211;-45
2020/12/12 01:48:25;;;;;;;96.22;41.60;;;3.30;99.90;;;;;;5092492;28;20214;-45
2020/12/12 01:50:52;;;;;;;89.18;42.75;;;3.20;99.90;;;;;;5092502;28;20229;-46
2020/12/12 01:53:19;;;;;;;106.72;44.35;;;3.30;99.90;;;;;;5092204;28;20194;-45
2020/12/12 01:55:48;;;;;;;100.75;42.83;;;3.60;99.90;;;;;;5093180;28;20247;-45
2020/12/12 01:58:15;;;;;;;96.50;42.08;;;3.40;99.90;;;;;;5092629;28;20226;-45
2020/12/12 02:00:42;;;;;;;100.10;44.05;;;3.50;99.90;;;;;;5086583;28;20718;-45
2020/12/12 02:03:10;;;;;;;96.07;45.80;;;3.30;99.90;;;;;;5092529;28;20286;-45
2020/12/12 02:05:40;;;;;;;98.30;43.22;;;3.50;99.90;;;;;;5092351;28;20244;-45
2020/12/12 02:08:09;;;;;;;95.85;44.13;;;2.60;99.90;;;;;;5092279;28;20215;-45
2020/12/12 02:10:37;;;;;;;92.57;41.83;;;3.50;99.90;;;;;;5092474;28;20592;-45
2020/12/12 02:13:05;;;;;;;95.47;43.08;;;3.10;99.90;;;;;;5082986;28;20640;-45
2020/12/12 02:15:32;;;;;;;97.10;41.17;;;3.10;99.90;;;;;;5054107;28;20238;-45
2020/12/12 02:18:00;;;;;;;83.68;39.25;;;3.10;99.90;;;;;;5072172;28;20286;-45
2020/12/12 02:20:27;;;;;;;81.57;40.13;;;3.20;99.90;;;;;;5072809;28;20245;-46
2020/12/12 02:22:54;;;;;;;91.47;41.53;;;2.70;99.90;;;;;;5072430;28;20309;-45
2020/12/12 02:25:21;;;;;;;85.47;39.13;;;3.40;99.90;;;;;;5072415;28;20196;-45
2020/12/12 02:27:49;;;;;;;83.47;42.25;;;3.50;99.90;;;;;;5074479;28;20241;-45
2020/12/12 02:30:16;;;;;;;93.18;39.28;;;3.40;99.90;;;;;;5076659;28;20215;-45
2020/12/12 02:32:42;;;;;;;80.07;41.35;;;3.20;99.90;;;;;;5094170;28;20667;-45
2020/12/12 02:35:09;;;;;;;94.22;40.83;;;3.20;99.90;;;;;;5096822;28;20191;-45
2020/12/12 02:37:36;;;;;;;77.93;38.92;;;3.10;99.90;;;;;;5097039;28;20270;-45
2020/12/12 02:40:03;;;;;;;91.03;42.13;;;3.10;99.90;;;;;;5097680;28;20225;-45
2020/12/12 02:42:30;;;;;;;85.88;40.33;;;3.10;99.90;;;;;;5097804;28;20195;-45
2020/12/12 02:44:56;;;;;;;91.50;41.33;;;3.20;99.90;;;;;;5096071;28;20229;-44
2020/12/12 02:47:23;;;;;;;80.43;40.05;;;2.60;99.90;;;;;;5096472;28;20419;-44
2020/12/12 02:50:08;;;;;;;83.30;40.22;;;3.20;99.90;;;;;;5096136;28;20202;-45
2020/12/12 02:52:35;;;;;;;85.03;40.80;;;3.00;99.90;;;;;;5095763;28;20682;-44
2020/12/12 02:55:02;;;;;;;77.80;39.28;;;3.20;99.90;;;;;;5096386;28;20198;-44
2020/12/12 02:57:29;;;;;;;90.45;40.40;;;3.20;99.90;;;;;;5096270;28;20234;-45
2020/12/12 02:59:55;;;;;;;94.32;40.53;;;3.00;99.90;;;;;;5077939;28;20226;-45
2020/12/12 03:02:22;;;;;;;90.07;39.20;;;3.00;99.90;;;;;;5090624;28;20203;-45
2020/12/12 03:04:48;;;;;;;88.82;40.30;;;2.40;99.90;;;;;;5096190;28;20240;-44
2020/12/12 03:07:15;;;;;;;84.43;41.45;;;3.10;99.90;;;;;;5095270;28;20223;-44
2020/12/12 03:09:41;;;;;;;78.93;39.70;;;3.20;99.90;;;;;;5095764;28;20579;-45
2020/12/12 03:12:09;;;;;;;84.03;39.60;;;3.10;99.90;;;;;;5075019;28;20194;-44
2020/12/12 03:14:35;;;;;;;74.57;37.88;;;3.30;99.90;;;;;;5074687;28;20199;-44
2020/12/12 03:17:02;;;;;;;77.03;38.92;;;3.10;99.90;;;;;;5075742;28;20210;-45
2020/12/12 03:19:28;;;;;;;83.35;38.22;;;3.20;99.90;;;;;;5075313;28;20260;-45
2020/12/12 03:21:55;;;;;;;91.85;43.00;;;3.20;99.90;;;;;;5075616;28;20226;-45
2020/12/12 03:24:21;;;;;;;78.32;40.75;;;3.10;99.90;;;;;;5075320;28;20219;-44
2020/12/12 03:26:50;;;;;;;77.30;38.50;;;3.10;99.90;;;;;;5077666;28;20280;-45
2020/12/12 03:29:17;;;;;;;84.57;40.03;;;3.00;99.90;;;;;;5075804;28;20191;-45
2020/12/12 03:31:43;;;;;;;70.05;38.25;;;3.20;99.90;;;;;;5080184;28;20247;-44
2020/12/12 03:34:10;;;;;;;73.78;37.88;;;3.20;99.90;;;;;;5096657;28;20214;-45
2020/12/12 03:36:36;;;;;;;80.65;39.97;;;3.00;99.90;;;;;;5097494;28;20221;-45
2020/12/12 03:39:03;;;;;;;78.63;39.15;;;3.10;99.90;;;;;;5097102;28;20210;-45
2020/12/12 03:41:30;;;;;;;71.88;37.05;;;3.20;99.90;;;;;;5096858;28;20248;-45
2020/12/12 03:43:56;;;;;;;73.60;38.75;;;3.00;99.90;;;;;;5096544;28;20218;-46
2020/12/12 03:46:23;;;;;;;68.55;37.90;;;3.10;99.90;;;;;;5094481;28;20230;-45
2020/12/12 03:48:50;;;;;;;71.45;37.85;;;3.10;99.90;;;;;;5094185;28;20215;-45
2020/12/12 03:51:17;;;;;;;77.07;38.08;;;2.40;99.90;;;;;;5094303;28;20597;-45
2020/12/12 03:53:43;;;;;;;68.90;36.20;;;3.00;99.90;;;;;;5093990;28;20190;-44
2020/12/12 03:56:10;;;;;;;72.93;39.08;;;3.00;99.90;;;;;;5094170;28;20539;-44
2020/12/12 03:58:36;;;;;;;76.78;37.35;;;3.00;99.90;;;;;;5105354;22;20235;-47
2020/12/12 04:01:03;;;;;;;70.93;37.92;;;3.20;99.90;;;;;;5072667;28;20579;-48
2020/12/12 04:03:30;;;;;;;70.00;38.63;;;3.10;99.90;;;;;;5073141;28;20196;-48
2020/12/12 04:05:57;;;;;;;75.88;40.30;;;3.00;99.90;;;;;;5074059;28;20203;-49
2020/12/12 04:08:23;;;;;;;64.95;36.65;;;2.90;99.90;;;;;;5083718;28;20653;-48
2020/12/12 04:10:50;;;;;;;76.43;38.40;;;3.20;99.90;;;;;;5093815;28;20191;-47
2020/12/12 04:13:16;;;;;;;74.50;39.45;;;2.90;99.90;;;;;;5093217;28;20629;-48
2020/12/12 04:15:43;;;;;;;74.60;37.50;;;2.60;99.90;;;;;;5093664;28;20712;-48
2020/12/12 04:18:09;;;;;;;66.25;37.17;;;3.10;99.90;;;;;;5093312;28;20210;-47
2020/12/12 04:20:37;;;;;;;73.78;37.53;;;3.10;99.90;;;;;;5093487;28;20236;-48
2020/12/12 04:23:03;;;;;;;78.05;38.63;;;3.10;99.90;;;;;;5093054;28;20227;-48
2020/12/12 04:25:30;;;;;;;69.35;36.40;;;3.00;99.90;;;;;;5093727;28;20191;-48
2020/12/12 04:27:56;;;;;;;64.95;36.40;;;3.20;99.90;;;;;;5093198;28;20250;-48
2020/12/12 04:30:22;;;;;;;66.75;37.72;;;2.40;99.90;;;;;;5092214;28;20194;-48
2020/12/12 04:32:49;;;;;;;61.85;36.33;;;3.00;99.90;;;;;;5073264;28;20203;-47
2020/12/12 04:35:16;;;;;;;69.65;38.53;;;3.10;99.90;;;;;;5073449;28;20614;-47
2020/12/12 04:37:43;;;;;;;65.47;36.65;;;2.20;99.90;;;;;;5074123;28;20219;-47
2020/12/12 04:40:10;;;;;;;66.22;39.22;;;2.80;99.90;;;;;;5073300;28;20192;-48
2020/12/12 04:42:42;;;;;;;64.30;36.58;;;2.90;99.90;;;;;;5072708;28;20221;-48
2020/12/12 04:45:09;;;;;;;68.60;36.35;;;2.90;99.90;;;;;;5073008;28;20583;-47
2020/12/12 04:47:36;;;;;;;68.97;36.95;;;2.80;99.90;;;;;;5072901;28;20219;-46
2020/12/12 04:50:03;;;;;;;63.85;37.10;;;3.10;99.90;;;;;;5072327;28;20195;-47
2020/12/12 04:52:31;;;;;;;72.40;37.92;;;3.10;99.90;;;;;;5072547;28;20640;-48
2020/12/12 04:55:05;;;;;;;60.75;36.10;;;3.20;99.90;;;;;;5072663;28;20187;-47
2020/12/12 04:57:35;;;;;;;66.22;37.30;;;2.90;99.90;;;;;;5073100;28;20211;-47
2020/12/12 05:00:07;;;;;;;62.53;36.33;;;2.90;99.90;;;;;;5070900;28;20199;-48
2020/12/12 05:02:33;;;;;;;67.97;39.15;;;3.10;99.90;;;;;;5072223;28;20430;-47
2020/12/12 05:05:00;;;;;;;70.97;38.97;;;3.10;99.90;;;;;;5072547;28;20195;-49
2020/12/12 05:07:26;;;;;;;68.97;39.80;;;3.20;99.90;;;;;;5072463;28;20246;-48
2020/12/12 05:09:53;;;;;;;68.22;37.15;;;3.00;99.90;;;;;;5072455;28;20237;-48
2020/12/12 05:12:21;;;;;;;61.83;37.72;;;2.90;99.90;;;;;;5074905;28;20222;-47
2020/12/12 05:14:49;;;;;;;70.43;38.50;;;2.90;99.90;;;;;;5092915;28;20191;-47
2020/12/12 05:17:16;;;;;;;65.13;36.88;;;3.30;99.90;;;;;;5092662;28;20210;-48
2020/12/12 05:19:46;;;;;;;63.28;37.30;;;2.90;99.90;;;;;;5092229;28;20195;-47
2020/12/12 05:22:13;;;;;;;69.35;38.72;;;3.20;99.90;;;;;;5092427;28;20219;-48
2020/12/12 05:24:40;;;;;;;75.45;38.30;;;3.00;99.90;;;;;;5091857;28;20566;-47
2020/12/12 05:27:06;;;;;;;64.18;36.90;;;3.00;99.90;;;;;;5092158;28;20656;-47
2020/12/12 05:29:34;;;;;;;67.22;38.40;;;3.20;99.90;;;;;;5092051;28;20246;-48
2020/12/12 05:32:01;;;;;;;66.15;38.85;;;2.90;99.90;;;;;;5075606;28;20562;-48
2020/12/12 05:34:27;;;;;;;64.65;39.05;;;3.20;99.90;;;;;;5071580;28;20232;-48
2020/12/12 05:36:55;;;;;;;66.00;37.97;;;3.00;99.90;;;;;;5071893;28;20219;-48
2020/12/12 05:39:22;;;;;;;67.63;38.50;;;3.20;99.90;;;;;;5071542;28;20716;-47
2020/12/12 05:41:49;;;;;;;65.53;37.15;;;3.20;99.90;;;;;;5071563;28;20593;-48
2020/12/12 05:44:16;;;;;;;61.67;37.28;;;3.10;99.90;;;;;;5071354;28;20195;-48
2020/12/12 05:46:45;;;;;;;61.90;37.42;;;3.20;99.90;;;;;;5070333;28;20288;-48
2020/12/12 05:49:11;;;;;;;65.05;36.00;;;2.90;99.90;;;;;;5071577;28;20340;-48
2020/12/12 05:51:39;;;;;;;67.95;38.17;;;3.00;99.90;;;;;;5071516;28;20247;-48
2020/12/12 05:54:06;;;;;;;59.95;37.60;;;3.20;99.90;;;;;;5071570;28;20198;-48
2020/12/12 05:56:33;;;;;;;65.72;39.30;;;2.40;99.90;;;;;;5071803;28;20192;-48
2020/12/12 05:59:00;;;;;;;73.90;40.05;;;3.10;99.90;;;;;;5071545;28;20265;-48
2020/12/12 06:01:29;;;;;;;63.38;37.65;;;3.10;99.90;;;;;;5084437;28;20552;-48
2020/12/12 06:04:03;;;;;;;67.40;39.08;;;3.20;99.90;;;;;;5095685;28;20218;-48
2020/12/12 06:06:30;;;;;;;58.72;38.17;;;3.10;99.90;;;;;;5095748;28;20237;-48
2020/12/12 06:09:04;;;;;;;67.97;38.83;;;2.50;99.90;;;;;;5096218;28;20616;-48
2020/12/12 06:11:31;;;;;;;63.17;38.58;;;3.00;99.90;;;;;;5096053;28;20256;-48
2020/12/12 06:14:00;;;;;;;65.22;37.88;;;2.90;99.90;;;;;;5093207;28;20207;-48
2020/12/12 06:16:28;;;;;;;69.53;40.53;;;2.90;99.90;;;;;;5095676;28;20293;-47
2020/12/12 06:19:08;;;;;;;72.22;39.63;;;3.10;99.90;;;;;;5095451;28;20232;-47
2020/12/12 06:21:35;;;;;;;63.58;36.97;;;3.20;99.90;;;;;;5095594;28;20264;-46
2020/12/12 06:24:03;;;;;;;60.47;37.22;;;3.00;99.90;;;;;;5095376;28;20195;-48
2020/12/12 06:26:51;;;;;;;63.33;37.50;;;3.10;99.90;;;;;;5093974;28;20250;-47
2020/12/12 06:29:19;;;;;;;64.93;37.88;;;3.40;99.90;;;;;;5095130;28;20718;-47
2020/12/12 06:31:46;;;;;;;65.50;38.83;;;2.80;99.90;;;;;;5095507;28;20269;-48
2020/12/12 06:34:14;;;;;;;65.13;37.28;;;3.00;99.90;;;;;;5095929;28;20195;-48
2020/12/12 06:36:48;;;;;;;69.82;39.22;;;3.00;99.90;;;;;;5095899;28;20210;-48
2020/12/12 06:39:23;;;;;;;61.33;38.17;;;2.90;99.90;;;;;;5095751;28;20578;-48
2020/12/12 06:41:51;;;;;;;66.60;38.58;;;3.00;99.90;;;;;;5095488;28;20190;-48
2020/12/12 06:44:31;;;;;;;63.65;37.92;;;3.00;99.90;;;;;;5083189;28;20241;-48
2020/12/12 06:46:58;;;;;;;68.10;37.95;;;3.10;99.90;;;;;;5074888;28;20566;-48
2020/12/12 06:49:26;;;;;;;62.58;38.08;;;2.90;99.90;;;;;;5075076;28;20306;-47
2020/12/12 06:51:53;;;;;;;61.78;37.42;;;2.90;99.90;;;;;;5074789;28;20257;-48
2020/12/12 06:54:20;;;;;;;71.80;41.17;;;2.70;99.90;;;;;;5074228;28;20241;-49
2020/12/12 06:56:46;;;;;;;70.30;40.53;;;3.00;99.90;;;;;;5074536;28;20652;-47
2020/12/12 06:59:31;;;;;;;67.95;41.25;;;2.90;99.90;;;;;;5072982;28;20788;-49
2020/12/12 07:01:59;;;;;;;64.40;39.55;;;3.00;99.90;;;;;;5090059;28;20199;-48
2020/12/12 07:04:31;;;;;;;70.07;41.92;;;2.70;99.90;;;;;;5094349;28;20190;-48
2020/12/12 07:07:04;;;;;;;66.65;40.30;;;2.80;99.90;;;;;;5094763;28;20210;-48
2020/12/12 07:09:32;;;;;;;66.00;39.35;;;2.90;99.90;;;;;;5094724;28;20585;-51
2020/12/12 07:12:00;;;;;;;68.65;38.92;;;3.00;99.90;;;;;;5094322;28;20720;-49
2020/12/12 07:14:27;;;;;;;72.22;41.33;;;3.00;99.90;;;;;;5091434;28;20285;-49
2020/12/12 07:16:55;;;;;;;69.63;41.88;;;2.70;99.90;;;;;;5094898;28;20643;-49
2020/12/12 07:19:43;;;;;;;73.00;43.10;;;2.90;99.90;;;;;;5094746;28;20304;-49
2020/12/12 07:22:11;;;;;;;74.03;42.90;;;2.70;99.90;;;;;;5089769;28;20275;-49
2020/12/12 07:24:39;;;;;;;65.88;40.90;;;2.70;99.90;;;;;;5094001;28;20194;-48
2020/12/12 07:27:06;;;;;;;74.72;42.90;;;2.90;99.90;;;;;;5094056;28;20211;-48
2020/12/12 07:29:33;;;;;;;77.15;42.83;;;2.70;99.90;;;;;;5094175;28;20218;-48
2020/12/12 07:32:00;;;;;;;70.03;42.03;;;2.90;99.90;;;;;;5094162;28;20293;-48
2020/12/12 07:34:28;;;;;;;73.20;43.45;;;3.10;99.90;;;;;;5093928;28;20190;-47
2020/12/12 07:37:00;;;;;;;68.57;42.45;;;2.80;99.90;;;;;;5094634;28;20546;-46
2020/12/12 07:39:27;;;;;;;74.78;43.83;;;2.90;99.90;;;;;;5086879;28;20310;-47
2020/12/12 07:41:57;;;;;;;74.97;44.45;;;2.80;99.90;;;;;;5086513;28;20285;-48
2020/12/12 07:44:24;;;;;;;78.72;42.83;;;2.80;99.90;;;;;;5094146;28;20190;-48
2020/12/12 07:46:56;;;;;;;78.78;42.35;;;2.80;99.90;;;;;;5094155;28;20361;-46
2020/12/12 07:49:22;;;;;;;70.38;42.38;;;3.00;99.90;;;;;;5094188;28;20482;-47
2020/12/12 07:51:49;;;;;;;76.70;43.05;;;2.90;99.90;;;;;;5093829;28;20260;-47
2020/12/12 07:54:18;;;;;;;80.72;43.00;;;2.60;99.90;;;;;;5093645;28;20251;-48
2020/12/12 07:56:51;;;;;;;74.25;42.67;;;2.90;99.90;;;;;;5093761;28;20193;-48
2020/12/12 07:59:21;;;;;;;73.63;44.15;;;2.70;99.90;;;;;;5093588;28;20694;-48
2020/12/12 08:01:50;;;;;;;86.07;44.83;;;2.80;99.90;;;;;;5079471;28;20199;-48
2020/12/12 08:04:21;;;;;;;69.50;44.50;;;3.10;99.90;;;;;;5073326;28;20211;-48
2020/12/12 08:06:48;;;;;;;69.00;41.38;;;3.10;99.90;;;;;;5072771;28;20294;-49
2020/12/12 08:09:20;;;;;;;81.47;45.20;;;2.90;99.90;;;;;;5073894;28;20231;-48
2020/12/12 08:11:55;;;;;;;80.78;47.15;;;3.10;99.90;;;;;;5071688;28;20239;-49
2020/12/12 08:14:22;;;;;;;81.93;46.45;;;3.20;99.90;;;;;;5092774;28;20195;-48
2020/12/12 08:16:54;;;;;;;83.53;45.85;;;2.50;99.90;;;;;;5093671;28;20187;-49
2020/12/12 08:19:20;;;;;;;82.07;45.10;;;3.20;99.90;;;;;;5093430;28;20214;-49
2020/12/12 08:21:49;;;;;;;90.38;48.90;;;3.10;99.90;;;;;;5093868;28;20277;-49
2020/12/12 08:24:16;;;;;;;72.85;44.72;;;2.90;99.90;;;;;;5093141;28;20719;-48
2020/12/12 08:26:44;;;;;;;87.35;47.33;;;3.30;99.90;;;;;;5094140;28;20193;-48
2020/12/12 08:29:10;;;;;;;81.93;46.00;;;3.30;99.90;;;;;;5093825;28;20214;-48
2020/12/12 08:31:39;;;;;;;93.35;46.25;;;3.00;99.90;;;;;;5093992;28;20659;-47
2020/12/12 08:34:07;;;;;;;82.85;48.88;;;3.00;99.90;;;;;;5093100;28;20607;-48
2020/12/12 08:36:35;;;;;;;83.35;45.95;;;3.30;99.90;;;;;;5092751;28;20194;-48
2020/12/12 08:39:04;;;;;;;90.90;46.03;;;3.20;99.90;;;;;;5091643;28;20223;-48
2020/12/12 08:41:33;;;;;;;79.70;46.08;;;3.30;99.90;;;;;;5092419;28;20666;-48
2020/12/12 08:44:01;;;;;;;81.18;46.08;;;3.30;99.90;;;;;;5091699;28;20716;-47
2020/12/12 08:46:28;;;;;;;76.05;43.72;;;2.70;99.90;;;;;;5093184;28;20186;-47
2020/12/12 08:48:55;;;;;;;79.22;44.30;;;3.60;99.90;;;;;;5093370;28;20272;-50
2020/12/12 08:51:26;;;;;;;87.65;44.35;;;3.50;99.90;;;;;;5091892;28;20603;-47
2020/12/12 08:53:53;;;;;;;80.45;46.10;;;3.50;99.90;;;;;;5090234;28;20675;-49
2020/12/12 08:56:28;;;;;;;89.38;45.80;;;3.30;99.90;;;;;;5093049;28;20233;-48
2020/12/12 08:58:57;;;;;;;79.20;47.80;;;4.30;99.90;;;;;;5092554;28;20245;-48
2020/12/12 09:01:35;;;;;;;74.80;45.30;;;3.50;99.90;;;;;;5081531;28;20199;-47
2020/12/12 09:04:07;;;;;;;85.75;46.05;;;4.00;99.90;;;;;;5071779;28;20656;-49
2020/12/12 09:06:35;;;;;;;86.88;46.25;;;3.70;99.90;;;;;;5072171;28;20214;-48
2020/12/12 09:09:09;;;;;;;74.32;43.05;;;3.30;99.90;;;;;;5071553;28;20234;-49
2020/12/12 09:11:36;;;;;;;83.22;44.50;;;3.60;99.90;;;;;;5072166;28;20659;-47
2020/12/12 09:14:03;;;;;;;73.90;43.20;;;3.40;99.90;;;;;;5089153;28;20202;-47
2020/12/12 09:16:30;;;;;;;81.85;43.15;;;3.50;99.90;;;;;;5092611;28;20229;-48
2020/12/12 09:18:57;;;;;;;79.53;44.97;;;3.60;99.90;;;;;;5092480;28;20212;-49
2020/12/12 09:21:24;;;;;;;80.82;42.45;;;3.70;99.90;;;;;;5092368;28;20544;-49
2020/12/12 09:23:51;;;;;;;85.32;46.97;;;3.90;99.90;;;;;;5092155;28;20233;-50
2020/12/12 09:26:19;;;;;;;79.97;41.75;;;3.60;99.90;;;;;;5092062;28;20236;-49
2020/12/12 09:28:46;;;;;;;74.15;43.72;;;3.90;99.90;;;;;;5092107;28;20687;-48
2020/12/12 09:31:15;;;;;;;72.78;42.97;;;3.60;99.90;;;;;;5092155;28;20272;-48
2020/12/12 09:33:42;;;;;;;83.13;44.65;;;3.70;99.90;;;;;;5091453;28;20199;-48
2020/12/12 09:36:09;;;;;;;85.70;44.63;;;3.60;99.90;;;;;;5091422;28;20278;-49
2020/12/12 09:38:35;;;;;;;76.18;44.42;;;3.80;99.90;;;;;;5091781;28;20260;-49
2020/12/12 09:41:03;;;;;;;82.70;47.42;;;4.10;99.90;;;;;;5089853;28;20206;-49
2020/12/12 09:43:30;;;;;;;80.93;43.90;;;3.70;99.90;;;;;;5091616;28;20203;-49
2020/12/12 09:45:56;;;;;;;81.07;41.97;;;4.10;99.90;;;;;;5092145;28;20197;-47
2020/12/12 09:48:23;;;;;;;84.05;46.53;;;3.70;99.90;;;;;;5090745;28;20226;-48
2020/12/12 09:50:51;;;;;;;80.88;44.40;;;3.80;99.90;;;;;;5091818;28;20195;-49
2020/12/12 09:53:17;;;;;;;84.03;45.38;;;3.30;99.90;;;;;;5091082;28;20225;-48
2020/12/12 09:55:45;;;;;;;80.88;46.42;;;3.70;99.90;;;;;;5091623;28;20206;-49
2020/12/12 09:58:12;;;;;;;68.10;41.90;;;3.60;99.90;;;;;;5092071;28;20215;-48
2020/12/12 10:00:40;;;;;;;67.13;40.20;;;4.00;99.90;;;;;;5088319;28;20223;-47
2020/12/12 10:03:07;;;;;;;88.25;43.92;;;4.00;99.90;;;;;;5072345;28;20191;-48
2020/12/12 10:05:34;;;;;;;77.10;42.95;;;4.20;99.90;;;;;;5071971;28;20199;-48
2020/12/12 10:08:03;;;;;;;73.15;39.55;;;3.80;99.90;;;;;;5071124;28;20239;-48
2020/12/12 10:10:31;;;;;;;81.78;43.33;;;4.20;99.90;;;;;;5072624;28;20246;-48
2020/12/12 10:12:57;;;;;;;72.32;40.85;;;4.10;99.90;;;;;;5079667;28;20199;-48
2020/12/12 10:15:24;;;;;;;68.05;41.05;;;4.20;99.90;;;;;;5092800;28;20194;-48
2020/12/12 10:17:52;;;;;;;74.38;38.92;;;4.10;99.90;;;;;;5092803;28;20655;-48
2020/12/12 10:20:19;;;;;;;75.78;41.10;;;3.90;99.90;;;;;;5092799;28;20260;-48
2020/12/12 10:22:46;;;;;;;73.40;40.58;;;4.20;99.90;;;;;;5091102;28;20601;-47
2020/12/12 10:25:13;;;;;;;72.05;43.17;;;3.90;99.90;;;;;;5091728;28;20662;-47
2020/12/12 10:27:43;;;;;;;67.25;39.13;;;4.30;99.90;;;;;;5091670;28;20273;-46
2020/12/12 10:30:11;;;;;;;70.05;40.80;;;4.00;99.90;;;;;;5091632;28;20291;-47
2020/12/12 10:32:39;;;;;;;68.85;38.97;;;4.10;99.90;;;;;;5090047;28;20252;-49
2020/12/12 10:35:06;;;;;;;64.95;38.85;;;4.20;99.90;;;;;;5092006;28;20221;-47
2020/12/12 10:37:32;;;;;;;73.35;41.63;;;4.40;99.90;;;;;;5092196;28;20622;-46
2020/12/12 10:40:06;;;;;;;71.68;40.88;;;4.20;99.90;;;;;;5090928;28;20655;-48
2020/12/12 10:42:34;;;;;;;82.13;42.97;;;4.00;99.90;;;;;;5091519;28;20199;-48
2020/12/12 10:45:00;;;;;;;70.53;38.50;;;3.90;99.90;;;;;;5092172;28;20195;-48
2020/12/12 10:47:27;;;;;;;70.15;39.13;;;4.30;99.90;;;;;;5091712;28;20317;-50
2020/12/12 10:49:54;;;;;;;71.43;41.35;;;4.10;99.90;;;;;;5101607;28;20213;-46
2020/12/12 10:52:21;;;;;;;67.78;39.92;;;4.30;99.90;;;;;;5096523;28;20236;-46
2020/12/12 10:54:49;;;;;;;73.35;39.85;;;4.70;99.90;;;;;;5096004;28;20213;-48
2020/12/12 10:57:16;;;;;;;68.75;38.45;;;4.20;99.90;;;;;;5094775;28;20265;-46
2020/12/12 10:59:44;;;;;;;73.75;40.55;;;4.30;99.90;;;;;;5094967;28;20226;-47
2020/12/12 11:02:12;;;;;;;68.05;41.72;;;4.50;99.90;;;;;;5077290;28;20192;-48
2020/12/12 11:04:39;;;;;;;72.45;41.72;;;4.20;99.90;;;;;;5074405;28;20195;-48
2020/12/12 11:07:06;;;;;;;75.25;41.10;;;4.00;99.90;;;;;;5074727;28;20199;-48
2020/12/12 11:09:33;;;;;;;72.78;39.10;;;3.80;99.90;;;;;;5073556;28;20215;-47
2020/12/12 11:12:00;;;;;;;71.13;40.78;;;4.50;99.90;;;;;;5073766;28;20583;-47
2020/12/12 11:14:28;;;;;;;70.85;40.67;;;4.50;99.90;;;;;;5094474;28;20300;-46
2020/12/12 11:16:56;;;;;;;58.83;36.53;;;4.60;99.90;;;;;;5096331;28;20201;-48
2020/12/12 11:19:24;;;;;;;70.72;37.22;;;4.30;99.90;;;;;;5096554;28;20244;-46
2020/12/12 11:21:54;;;;;;;64.47;38.20;;;4.50;99.90;;;;;;5094465;28;20290;-47
2020/12/12 11:24:20;;;;;;;72.82;37.50;;;4.40;99.90;;;;;;5094166;28;20595;-47
2020/12/12 11:26:47;;;;;;;61.67;35.42;;;4.30;99.90;;;;;;5094204;28;20218;-47
2020/12/12 11:29:15;;;;;;;67.57;38.03;;;4.50;99.90;;;;;;5093908;28;20207;-48
2020/12/12 11:31:43;;;;;;;60.58;36.92;;;4.60;99.90;;;;;;5094222;28;20281;-48
2020/12/12 11:34:16;;;;;;;67.30;37.20;;;4.40;99.90;;;;;;5093450;28;20216;-48
2020/12/12 11:37:02;;;;;;;66.00;36.67;;;4.00;99.90;;;;;;5093951;28;20291;-47
2020/12/12 11:39:33;;;;;;;66.78;37.20;;;4.60;99.90;;;;;;5091179;28;20225;-48
2020/12/12 11:42:28;;;;;;;54.85;34.35;;;4.30;99.90;;;;;;5093491;28;20182;-49
2020/12/12 11:47:39;;;;;;;70.97;41.83;;;4.70;99.90;;;;;;5092243;28;20218;-47
2020/12/12 11:50:07;;;;;;;75.47;40.90;;;4.10;99.90;;;;;;5094243;28;20679;-49
2020/12/12 11:52:36;;;;;;;72.93;40.08;;;4.20;99.90;;;;;;5093524;28;20202;-47
2020/12/12 11:55:04;;;;;;;64.35;38.65;;;4.50;99.90;;;;;;5087416;28;20203;-48
2020/12/12 11:57:31;;;;;;;72.93;40.42;;;4.00;99.90;;;;;;5073293;28;20221;-49
2020/12/12 12:00:02;;;;;;;70.82;40.10;;;4.80;99.90;;;;;;5073205;28;20199;-46
2020/12/12 12:02:31;;;;;;;75.68;41.53;;;4.60;99.90;;;;;;5092721;28;20269;-47
2020/12/12 12:04:58;;;;;;;65.32;38.13;;;4.10;99.90;;;;;;5093040;28;20605;-47
2020/12/12 12:07:25;;;;;;;64.95;37.22;;;4.60;99.90;;;;;;5093183;28;20214;-48
2020/12/12 12:10:03;;;;;;;77.75;38.58;;;4.80;99.90;;;;;;5093300;28;20222;-47
2020/12/12 12:12:30;;;;;;;66.55;37.65;;;4.00;99.90;;;;;;5096815;28;20722;-47
2020/12/12 12:14:56;;;;;;;74.03;40.30;;;4.40;99.90;;;;;;5092278;28;20271;-48
2020/12/12 12:17:23;;;;;;;71.55;37.78;;;4.60;99.90;;;;;;5073408;28;20215;-48
2020/12/12 12:19:50;;;;;;;72.18;41.15;;;4.20;99.90;;;;;;5072891;28;20191;-49
2020/12/12 12:22:16;;;;;;;74.07;39.63;;;4.40;99.90;;;;;;5072356;28;20348;-48
2020/12/12 12:24:44;;;;;;;65.10;36.38;;;4.80;99.90;;;;;;5072397;28;20201;-49
2020/12/12 12:27:10;;;;;;;66.50;38.38;;;4.50;99.90;;;;;;5072218;28;20278;-49
2020/12/12 12:29:37;;;;;;;64.18;38.45;;;4.40;99.90;;;;;;5072354;28;20290;-48
2020/12/12 12:32:03;;;;;;;66.57;38.78;;;4.00;99.90;;;;;;5072248;28;20199;-49
2020/12/12 12:34:30;;;;;;;67.45;39.30;;;4.40;99.90;;;;;;5071925;28;20671;-47
2020/12/12 12:36:57;;;;;;;78.97;38.55;;;4.60;99.90;;;;;;5071161;28;20226;-50
2020/12/12 12:39:23;;;;;;;68.32;37.13;;;4.50;99.90;;;;;;5077534;28;20214;-50
2020/12/12 12:41:51;;;;;;;70.60;39.55;;;4.70;99.90;;;;;;5092506;28;20275;-49